Time;durP1;ratioP1;P1;durP2;ratioP2;P2;SDS_P1;SDS_P2;PMS_P1;PMS_P2;Temp;Humidity;BMP_temperature;BMP_pressure;BME280_temperature;BME280_humidity;BME280_pressure;Samples;Min_cycle;Max_cycle;Signal;HPM_P1;HPM_P2
2023/02/11 00:00:39;;;;;;;9.65;6.47;;;;;;;4.91;100.00;103121.41;6048566;23;20028;-70
2023/02/11 00:03:06;;;;;;;10.52;7.28;;;;;;;4.70;100.00;103083.91;6024702;23;20019;-71
2023/02/11 00:05:33;;;;;;;11.48;6.63;;;;;;;4.87;100.00;103111.81;6053803;23;20042;-70
2023/02/11 00:07:59;;;;;;;7.28;6.18;;;;;;;4.90;100.00;103117.09;6016476;23;20053;-70
2023/02/11 00:10:26;;;;;;;13.15;7.07;;;;;;;4.70;100.00;103076.09;6032504;23;20038;-70
2023/02/11 00:12:52;;;;;;;10.52;7.20;;;;;;;4.93;100.00;103120.59;6044666;23;20552;-70
2023/02/11 00:15:20;;;;;;;9.45;6.55;;;;;;;4.66;100.00;103048.31;6033200;23;20026;-70
2023/02/11 00:17:46;;;;;;;9.75;7.40;;;;;;;4.73;100.00;103044.03;6021470;23;20030;-70
2023/02/11 00:20:13;;;;;;;12.73;7.72;;;;;;;5.06;100.00;103108.56;6055492;23;20039;-70
2023/02/11 00:22:39;;;;;;;10.73;8.07;;;;;;;5.05;100.00;103108.53;5997858;23;20566;-71
2023/02/11 00:25:06;;;;;;;9.95;7.88;;;;;;;5.08;100.00;103100.78;6027923;23;20077;-70
2023/02/11 00:27:32;;;;;;;9.95;7.03;;;;;;;4.69;100.00;103045.78;6029762;23;20038;-70
2023/02/11 00:30:01;;;;;;;8.93;6.57;;;;;;;5.13;100.00;103110.38;6027387;23;20030;-70
2023/02/11 00:32:27;;;;;;;8.18;7.20;;;;;;;4.70;100.00;103038.84;6027107;23;20038;-72
2023/02/11 00:34:54;;;;;;;15.90;7.40;;;;;;;3.46;100.00;102817.50;6026499;23;20031;-70
2023/02/11 00:37:21;;;;;;;12.43;7.20;;;;;;;5.08;100.00;103103.38;6032833;23;20375;-71
2023/02/11 00:39:49;;;;;;;14.13;8.10;;;;;;;4.77;100.00;103058.81;6026328;23;20157;-70
2023/02/11 00:42:15;;;;;;;8.80;6.68;;;;;;;4.49;100.00;103013.47;6028630;23;20468;-71
2023/02/11 00:44:42;;;;;;;13.38;8.05;;;;;;;4.79;100.00;103063.22;5999684;23;20023;-71
2023/02/11 00:47:08;;;;;;;15.00;5.93;;;;;;;4.34;100.00;103009.84;6029749;23;20022;-71
2023/02/11 00:49:35;;;;;;;8.57;7.35;;;;;;;4.60;100.00;103072.53;5995216;23;20074;-71
2023/02/11 00:52:02;;;;;;;9.45;6.93;;;;;;;4.27;100.00;103023.66;6019771;23;20035;-71
2023/02/11 00:54:28;;;;;;;10.05;7.65;;;;;;;4.36;100.00;103060.13;6007674;23;20044;-72
2023/02/11 00:56:55;;;;;;;21.58;7.55;;;;;;;4.42;100.00;103035.06;6019500;23;20415;-72
2023/02/11 00:59:21;;;;;;;8.25;7.40;;;;;;;4.51;100.00;103059.44;6029772;23;20392;-70
2023/02/11 01:01:48;;;;;;;9.93;5.00;;;;;;;4.42;100.00;103050.66;6005179;23;20016;-71
2023/02/11 01:04:15;;;;;;;13.50;7.90;;;;;;;3.78;100.00;102947.69;6025529;23;20068;-70
2023/02/11 01:06:41;;;;;;;10.15;7.13;;;;;;;4.30;100.00;103067.84;6040627;23;20679;-70
2023/02/11 01:09:08;;;;;;;9.02;6.95;;;;;;;2.84;100.00;102800.28;6038661;23;20527;-71
2023/02/11 01:11:34;;;;;;;7.80;6.45;;;;;;;4.44;100.00;103070.63;6004450;23;20164;-70
2023/02/11 01:14:01;;;;;;;8.07;7.07;;;;;;;4.39;100.00;103083.56;6024686;23;20018;-71
2023/02/11 01:16:27;;;;;;;7.68;6.82;;;;;;;3.54;100.00;102924.91;6025637;23;20089;-70
2023/02/11 01:18:54;;;;;;;13.13;8.55;;;;;;;3.47;100.00;102915.28;6021378;23;20023;-70
2023/02/11 01:21:21;;;;;;;9.13;6.78;;;;;;;4.29;100.00;103063.53;6026338;23;20043;-70
2023/02/11 01:23:47;;;;;;;6.95;6.28;;;;;;;3.49;100.00;102918.75;6030114;23;20014;-70
2023/02/11 01:26:13;;;;;;;10.95;7.50;;;;;;;3.90;100.00;103015.38;6060307;23;20017;-71
2023/02/11 01:28:40;;;;;;;9.68;6.75;;;;;;;4.19;100.00;103064.28;6041763;23;20093;-71
2023/02/11 01:31:07;;;;;;;11.82;6.97;;;;;;;3.99;100.00;103040.63;6001377;23;20030;-71
2023/02/11 01:33:33;;;;;;;7.30;6.03;;;;;;;4.20;100.00;103071.19;6041198;23;20596;-70
2023/02/11 01:36:02;;;;;;;8.10;7.32;;;;;;;3.98;100.00;103029.34;6049782;23;20035;-70
2023/02/11 01:38:30;;;;;;;7.65;6.85;;;;;;;4.22;100.00;103074.69;6047778;23;20014;-71
2023/02/11 01:40:59;;;;;;;9.43;6.97;;;;;;;4.13;100.00;103071.97;6048531;23;20147;-71
2023/02/11 01:43:30;;;;;;;12.07;7.35;;;;;;;4.17;100.00;103061.66;6012576;23;20433;-70
2023/02/11 01:46:19;;;;;;;10.10;8.00;;;;;;;4.31;100.00;103082.63;6032249;23;20034;-71
2023/02/11 01:48:58;;;;;;;6.93;6.05;;;;;;;4.32;100.00;103076.53;6015181;23;20079;-71
2023/02/11 01:51:33;;;;;;;8.45;7.55;;;;;;;4.14;100.00;103053.81;6047982;23;20045;-71
2023/02/11 02:00:10;;;;;;;7.72;6.97;;;;;;;4.53;100.00;103078.53;6054341;23;20039;-70
2023/02/11 02:02:53;;;;;;;8.82;8.05;;;;;;;4.52;100.00;103073.31;6018462;23;20094;-71
2023/02/11 02:05:38;;;;;;;20.73;8.52;;;;;;;4.11;100.00;102999.22;6052337;23;20084;-71
2023/02/11 02:08:24;;;;;;;8.93;8.00;;;;;;;4.27;100.00;103012.34;6027429;23;20042;-70
2023/02/11 02:10:55;;;;;;;13.25;7.97;;;;;;;4.63;100.00;103069.13;6028516;23;20110;-69
2023/02/11 02:13:25;;;;;;;5.57;5.18;;;;;;;4.13;100.00;102988.81;6056485;23;20041;-71
2023/02/11 02:16:22;;;;;;;10.90;7.65;;;;;;;3.29;100.00;102832.88;6038195;23;20346;-71
2023/02/11 02:19:02;;;;;;;13.85;7.43;;;;;;;4.55;100.00;103047.31;6049320;23;20027;-70
2023/02/11 02:21:38;;;;;;;9.90;8.35;;;;;;;4.44;100.00;103028.16;6055740;23;20654;-71
2023/02/11 02:24:47;;;;;;;14.13;8.10;;;;;;;4.64;100.00;103043.97;6004456;23;20026;-71
2023/02/11 02:27:36;;;;;;;10.25;6.25;;;;;;;4.73;100.00;103050.16;6007087;23;20076;-72
2023/02/11 02:30:27;;;;;;;8.30;7.60;;;;;;;4.70;100.00;103037.09;6026595;23;20023;-70
2023/02/11 02:33:02;;;;;;;7.55;6.72;;;;;;;4.77;100.00;103038.00;6051547;23;20033;-71
2023/02/11 02:35:54;;;;;;;6.28;5.63;;;;;;;4.51;100.00;103011.75;6053649;23;20010;-72
2023/02/11 02:38:33;;;;;;;9.45;6.50;;;;;;;4.39;100.00;102969.19;6026752;23;20084;-71
2023/02/11 02:41:08;;;;;;;9.65;6.85;;;;;;;4.58;100.00;102997.97;6019237;23;20657;-71
2023/02/11 02:43:41;;;;;;;5.68;5.20;;;;;;;4.80;100.00;103035.47;6055494;23;20077;-70
2023/02/11 02:46:10;;;;;;;7.53;6.97;;;;;;;4.79;100.00;103028.50;6024715;23;20022;-71
2023/02/11 02:48:37;;;;;;;13.07;9.32;;;;;;;4.59;100.00;102999.69;6035166;23;20642;-71
2023/02/11 02:51:36;;;;;;;8.10;7.30;;;;;;;4.58;100.00;102992.75;6051444;23;20030;-71
2023/02/11 02:54:15;;;;;;;7.82;6.78;;;;;;;4.42;100.00;102952.75;6049091;23;20037;-70
2023/02/11 02:57:01;;;;;;;12.60;7.90;;;;;;;4.84;100.00;103012.94;6033330;23;20084;-71
2023/02/11 02:59:51;;;;;;;7.05;6.28;;;;;;;4.84;100.00;103018.16;6008471;23;20019;-71
2023/02/11 03:02:28;;;;;;;6.90;6.30;;;;;;;4.71;100.00;103001.53;6056079;23;20037;-71
2023/02/11 03:05:20;;;;;;;6.53;5.80;;;;;;;4.84;100.00;103018.16;5995789;23;20033;-71
2023/02/11 03:07:57;;;;;;;9.35;7.20;;;;;;;4.49;100.00;102953.66;6052523;23;20030;-71
2023/02/11 03:10:27;;;;;;;7.00;6.35;;;;;;;4.89;100.00;103008.66;6023511;23;20019;-71
2023/02/11 03:12:55;;;;;;;15.55;7.80;;;;;;;4.43;100.00;102932.81;6052949;23;20627;-71
2023/02/11 03:15:25;;;;;;;8.05;6.72;;;;;;;4.34;100.00;102926.66;6017298;23;20029;-71
2023/02/11 03:17:55;;;;;;;7.55;6.78;;;;;;;3.69;100.00;102830.72;6016732;23;20038;-72
2023/02/11 03:20:22;;;;;;;12.90;7.32;;;;;;;4.92;100.00;103027.75;6034815;23;20015;-71
2023/02/11 03:22:55;;;;;;;8.63;6.72;;;;;;;4.61;100.00;102969.41;6033590;23;20745;-71
2023/02/11 03:25:29;;;;;;;9.95;7.05;;;;;;;4.95;100.00;103011.28;6022806;23;20532;-71
2023/02/11 03:28:10;;;;;;;7.95;7.20;;;;;;;4.55;100.00;102951.13;6046646;23;20035;-72
2023/02/11 03:30:45;;;;;;;6.18;5.68;;;;;;;4.73;100.00;102974.72;6024972;23;20031;-71
2023/02/11 03:33:28;;;;;;;14.88;7.75;;;;;;;4.44;100.00;102913.75;6030541;23;20033;-71
2023/02/11 03:36:04;;;;;;;10.23;6.70;;;;;;;4.79;100.00;102977.38;6049633;23;20163;-71
2023/02/11 03:38:35;;;;;;;7.88;7.18;;;;;;;4.58;100.00;102948.56;6050086;23;20100;-72
2023/02/11 03:41:06;;;;;;;9.90;7.55;;;;;;;4.89;100.00;102980.91;6052501;23;20082;-73
2023/02/11 03:43:34;;;;;;;10.27;7.00;;;;;;;4.93;100.00;102976.59;6007631;23;20027;-72
2023/02/11 03:46:02;;;;;;;9.57;7.18;;;;;;;4.61;100.00;102943.41;6025241;23;20014;-71
2023/02/11 03:48:42;;;;;;;10.80;7.25;;;;;;;4.96;100.00;102981.81;6031189;23;20059;-71
2023/02/11 03:51:11;;;;;;;10.68;8.13;;;;;;;4.94;100.00;102988.75;6052651;23;20443;-71
2023/02/11 03:53:42;;;;;;;9.85;8.57;;;;;;;4.90;100.00;102989.59;6056272;23;20041;-71
2023/02/11 03:56:15;;;;;;;10.75;6.40;;;;;;;4.83;100.00;102978.28;6023040;23;20062;-71
2023/02/11 03:58:46;;;;;;;10.05;7.50;;;;;;;4.90;100.00;102997.41;6048644;23;20614;-70
2023/02/11 04:01:15;;;;;;;12.10;7.30;;;;;;;4.42;100.00;102925.88;6028793;23;20077;-70
2023/02/11 04:03:42;;;;;;;7.10;6.40;;;;;;;4.84;100.00;102989.53;6053421;23;20058;-71
2023/02/11 04:06:08;;;;;;;9.68;7.80;;;;;;;4.92;100.00;103009.56;6052977;23;20188;-72
2023/02/11 04:08:34;;;;;;;8.38;6.63;;;;;;;4.89;100.00;102990.44;6049194;23;20091;-71
2023/02/11 04:11:01;;;;;;;8.38;7.20;;;;;;;4.74;100.00;102967.78;6052737;23;20030;-71
2023/02/11 04:13:27;;;;;;;9.52;7.15;;;;;;;4.73;100.00;102961.69;6024534;23;20052;-71
2023/02/11 04:15:54;;;;;;;11.55;7.93;;;;;;;4.76;100.00;102963.44;6049423;23;20681;-72
2023/02/11 04:18:20;;;;;;;6.82;6.18;;;;;;;4.45;100.00;102900.78;6049100;23;20064;-72
2023/02/11 04:20:49;;;;;;;12.50;7.70;;;;;;;4.74;100.00;102960.84;6036851;23;20389;-71
2023/02/11 04:23:15;;;;;;;7.35;6.72;;;;;;;4.90;100.00;102977.44;6048779;23;20125;-72
2023/02/11 04:25:42;;;;;;;8.40;6.72;;;;;;;4.94;100.00;102967.94;6054092;23;20080;-73
2023/02/11 04:28:08;;;;;;;6.03;5.57;;;;;;;4.30;100.00;102869.44;6049488;23;20026;-72
2023/02/11 04:30:34;;;;;;;10.88;7.47;;;;;;;4.96;100.00;102987.03;6030873;23;20465;-71
2023/02/11 04:33:01;;;;;;;9.00;7.60;;;;;;;4.96;100.00;102994.84;6051218;23;20050;-71
2023/02/11 04:35:27;;;;;;;6.55;5.95;;;;;;;4.04;100.00;102830.22;6053547;23;20069;-72
2023/02/11 04:37:54;;;;;;;7.78;6.60;;;;;;;4.13;100.00;102857.16;6023876;23;20030;-71
2023/02/11 04:40:20;;;;;;;10.10;7.03;;;;;;;4.40;100.00;102885.13;6029961;23;20074;-72
2023/02/11 04:42:47;;;;;;;12.98;8.88;;;;;;;4.52;100.00;102901.69;6049772;23;20037;-73
2023/02/11 04:45:13;;;;;;;12.93;7.22;;;;;;;4.88;100.00;102967.88;6029537;23;20278;-71
2023/02/11 04:47:40;;;;;;;16.75;7.10;;;;;;;4.77;100.00;102949.56;6050834;23;20599;-72
2023/02/11 04:50:06;;;;;;;8.27;7.50;;;;;;;4.73;100.00;102938.28;6032432;23;20019;-71
2023/02/11 04:52:33;;;;;;;11.02;6.18;;;;;;;4.56;100.00;102912.13;6052767;23;20049;-71
2023/02/11 04:54:59;;;;;;;17.63;7.40;;;;;;;4.39;100.00;102886.00;6052143;23;20539;-71
2023/02/11 04:57:25;;;;;;;8.43;5.75;;;;;;;4.85;100.00;102967.84;6000296;23;20416;-70
2023/02/11 04:59:52;;;;;;;9.60;6.10;;;;;;;4.98;100.00;102980.13;6056280;23;20083;-70
2023/02/11 05:02:18;;;;;;;14.02;8.25;;;;;;;4.49;100.00;102899.94;6049390;23;20591;-70
2023/02/11 05:04:45;;;;;;;9.55;7.63;;;;;;;4.38;100.00;102872.97;6030926;23;20037;-71
2023/02/11 05:07:11;;;;;;;8.65;7.65;;;;;;;4.78;100.00;102953.94;6023754;23;20026;-70
2023/02/11 05:09:38;;;;;;;6.60;6.10;;;;;;;4.88;100.00;102963.56;6045420;23;20276;-71
2023/02/11 05:12:04;;;;;;;13.32;7.57;;;;;;;4.82;100.00;102954.84;6026892;23;20089;-71
2023/02/11 05:14:31;;;;;;;14.48;7.70;;;;;;;4.95;100.00;102964.47;6024620;23;20077;-70
2023/02/11 05:16:58;;;;;;;9.60;8.40;;;;;;;4.72;100.00;102925.28;6047991;23;20461;-71
2023/02/11 05:19:24;;;;;;;13.02;7.57;;;;;;;4.83;100.00;102935.75;6051638;23;20066;-72
2023/02/11 05:21:52;;;;;;;9.30;8.30;;;;;;;4.76;100.00;102930.50;6024283;23;20086;-70
2023/02/11 05:24:30;;;;;;;7.43;6.65;;;;;;;4.72;100.00;102910.53;6052586;23;20030;-71
2023/02/11 05:26:56;;;;;;;10.52;7.22;;;;;;;5.02;100.00;102968.00;6041671;23;20038;-71
2023/02/11 05:29:23;;;;;;;6.97;5.97;;;;;;;4.83;100.00;102931.44;6023828;23;20018;-71
2023/02/11 05:31:49;;;;;;;10.60;7.30;;;;;;;4.51;100.00;102884.34;6024730;23;20031;-71
2023/02/11 05:34:16;;;;;;;7.95;7.15;;;;;;;4.99;100.00;102948.00;6056422;23;20014;-71
2023/02/11 05:36:42;;;;;;;6.55;6.05;;;;;;;4.79;100.00;102908.84;6058549;23;20178;-71
2023/02/11 05:39:08;;;;;;;8.40;6.15;;;;;;;4.99;100.00;102955.81;6028481;23;20030;-73
2023/02/11 05:41:38;;;;;;;10.73;7.60;;;;;;;5.01;100.00;102943.69;6035307;23;20026;-71
2023/02/11 05:44:04;;;;;;;8.77;7.35;;;;;;;4.99;100.00;102945.41;6052354;23;20030;-71
2023/02/11 05:46:31;;;;;;;10.55;8.95;;;;;;;4.53;100.00;102869.63;6058367;23;20026;-71
2023/02/11 05:48:57;;;;;;;17.45;8.65;;;;;;;4.11;100.00;102800.81;6028928;23;20026;-71
2023/02/11 05:51:24;;;;;;;9.93;7.78;;;;;;;4.84;100.00;102925.34;6050709;23;20034;-71
2023/02/11 05:53:50;;;;;;;7.50;6.80;;;;;;;4.39;100.00;102854.81;6030065;23;20023;-71
2023/02/11 05:56:17;;;;;;;9.68;6.55;;;;;;;5.00;100.00;102932.41;6058020;23;20189;-71
2023/02/11 05:59:13;;;;;;;7.80;6.97;;;;;;;5.00;100.00;102935.00;6059109;23;20102;-71
2023/02/11 06:01:42;;;;;;;13.32;8.02;;;;;;;4.59;100.00;102862.75;6026437;23;20050;-70
2023/02/11 06:04:08;;;;;;;15.15;6.90;;;;;;;4.69;100.00;102866.31;6057699;23;20434;-70
2023/02/11 06:06:35;;;;;;;11.63;9.70;;;;;;;4.35;100.00;102816.66;6026566;23;20018;-70
2023/02/11 06:09:02;;;;;;;8.88;6.35;;;;;;;4.99;100.00;102922.88;6042046;23;20038;-70
2023/02/11 06:11:29;;;;;;;6.63;5.97;;;;;;;4.99;100.00;102925.47;6031356;23;20694;-71
2023/02/11 06:13:56;;;;;;;7.10;6.43;;;;;;;4.65;100.00;102877.53;6054928;23;20299;-70
2023/02/11 06:16:23;;;;;;;10.95;6.75;;;;;;;4.82;100.00;102908.88;6054855;23;20041;-71
2023/02/11 06:18:50;;;;;;;13.32;8.48;;;;;;;4.78;100.00;102894.09;6030515;23;20782;-71
2023/02/11 06:21:16;;;;;;;7.53;6.68;;;;;;;4.59;100.00;102860.16;6055236;23;20018;-71
2023/02/11 06:24:11;;;;;;;8.10;6.40;;;;;;;4.94;100.00;102932.38;6049194;23;20536;-70
2023/02/11 06:26:38;;;;;;;8.23;6.65;;;;;;;4.83;100.00;102915.84;6030100;23;20034;-70
2023/02/11 06:29:04;;;;;;;8.80;8.00;;;;;;;4.21;100.00;102818.25;6050707;23;20034;-70
2023/02/11 06:31:31;;;;;;;9.35;7.47;;;;;;;4.93;100.00;102930.66;6027519;23;20027;-70
2023/02/11 06:33:58;;;;;;;8.63;7.88;;;;;;;4.99;100.00;102928.09;6055161;23;20263;-70
2023/02/11 06:36:24;;;;;;;8.00;7.18;;;;;;;5.04;100.00;102927.25;6026825;23;20050;-71
2023/02/11 06:38:54;;;;;;;10.88;8.18;;;;;;;4.53;100.00;102831.50;6004089;23;20089;-71
2023/02/11 06:41:20;;;;;;;12.35;7.07;;;;;;;5.00;100.00;102911.59;6050018;23;20081;-71
2023/02/11 06:43:49;;;;;;;11.85;7.78;;;;;;;4.84;100.00;102885.47;6026952;23;20015;-70
2023/02/11 06:46:16;;;;;;;17.58;7.55;;;;;;;4.91;100.00;102900.25;6047383;23;20030;-70
2023/02/11 06:49:13;;;;;;;11.85;8.45;;;;;;;4.82;100.00;102893.25;6000986;23;20396;-70
2023/02/11 06:51:40;;;;;;;9.68;8.18;;;;;;;4.89;100.00;102914.97;5986491;23;20537;-70
2023/02/11 06:54:07;;;;;;;7.50;6.82;;;;;;;4.90;100.00;102903.72;6052876;23;20213;-70
2023/02/11 06:56:34;;;;;;;24.98;6.70;;;;;;;4.34;100.00;102827.03;6051416;23;20560;-73
2023/02/11 06:59:28;;;;;;;13.35;8.65;;;;;;;3.58;100.00;102683.50;6020101;23;20098;-70
2023/02/11 07:01:54;;;;;;;13.82;8.02;;;;;;;5.05;100.00;102931.56;6022522;23;20072;-69
2023/02/11 07:04:21;;;;;;;16.05;9.05;;;;;;;4.87;100.00;102906.28;6051558;23;20097;-70
2023/02/11 07:06:48;;;;;;;11.75;7.65;;;;;;;4.96;100.00;102909.84;6022318;23;20249;-72
2023/02/11 07:09:42;;;;;;;8.65;6.45;;;;;;;4.54;100.00;102850.56;6050991;23;20033;-71
2023/02/11 07:12:10;;;;;;;9.35;7.70;;;;;;;5.03;100.00;102926.34;6052914;23;20026;-69
2023/02/11 07:14:36;;;;;;;11.45;8.93;;;;;;;4.37;100.00;102817.53;6047848;23;20528;-69
2023/02/11 07:17:04;;;;;;;11.20;8.23;;;;;;;4.99;100.00;102922.88;6048662;23;20018;-72
2023/02/11 07:19:58;;;;;;;13.70;8.30;;;;;;;5.00;100.00;102923.75;6029944;23;20029;-69
2023/02/11 07:22:24;;;;;;;12.52;7.50;;;;;;;4.73;100.00;102874.97;6049989;23;20050;-69
2023/02/11 07:24:51;;;;;;;12.80;8.05;;;;;;;4.94;100.00;102910.69;6020076;23;20056;-70
2023/02/11 07:27:17;;;;;;;9.18;8.23;;;;;;;4.12;100.00;102771.41;6018888;23;20444;-69
2023/02/11 07:29:45;;;;;;;9.63;6.97;;;;;;;5.01;100.00;102928.06;6024719;23;20074;-70
2023/02/11 07:32:12;;;;;;;10.00;8.00;;;;;;;4.43;100.00;102828.81;6057403;23;20031;-70
2023/02/11 07:34:39;;;;;;;17.85;7.68;;;;;;;5.08;100.00;102940.28;6025295;23;20489;-71
2023/02/11 07:37:05;;;;;;;9.82;8.85;;;;;;;4.60;100.00;102866.22;6026296;23;20169;-71
2023/02/11 07:39:32;;;;;;;13.45;9.02;;;;;;;5.07;100.00;102964.56;6021802;23;20616;-71
2023/02/11 07:41:58;;;;;;;10.60;8.13;;;;;;;4.77;100.00;102890.63;6047911;23;20044;-69
2023/02/11 07:44:25;;;;;;;8.73;7.93;;;;;;;4.94;100.00;102916.75;6054895;23;20055;-70
2023/02/11 07:46:52;;;;;;;11.15;9.50;;;;;;;4.60;100.00;102850.63;6000899;23;20263;-69
2023/02/11 07:49:18;;;;;;;12.20;10.00;;;;;;;5.07;100.00;102930.75;6052696;23;20022;-70
2023/02/11 07:51:46;;;;;;;17.35;8.52;;;;;;;5.00;100.00;102936.75;6025690;23;20076;-70
2023/02/11 07:54:12;;;;;;;14.90;9.32;;;;;;;4.75;100.00;102892.34;6028420;23;20314;-70
2023/02/11 07:56:38;;;;;;;19.70;11.23;;;;;;;5.11;100.00;102950.72;6047253;23;20109;-70
2023/02/11 07:59:05;;;;;;;17.25;9.68;;;;;;;4.97;100.00;102936.72;6049247;23;20362;-70
2023/02/11 08:01:32;;;;;;;14.15;9.30;;;;;;;5.14;100.00;102952.47;6046128;23;20450;-71
2023/02/11 08:04:00;;;;;;;9.68;8.57;;;;;;;4.97;100.00;102923.72;6051634;23;20245;-71
2023/02/11 08:06:56;;;;;;;10.55;7.72;;;;;;;4.71;100.00;102874.09;6004991;23;20092;-71
2023/02/11 08:09:24;;;;;;;9.60;8.20;;;;;;;5.05;100.00;102926.38;6023339;23;20046;-71
2023/02/11 08:11:51;;;;;;;12.93;10.52;;;;;;;5.20;100.00;102947.31;6026648;23;20018;-70
2023/02/11 08:14:17;;;;;;;19.77;10.40;;;;;;;5.09;100.00;102936.84;6053606;23;20076;-71
2023/02/11 08:16:43;;;;;;;11.45;9.82;;;;;;;3.85;100.00;102702.78;6056524;23;20082;-70
2023/02/11 08:19:13;;;;;;;21.02;9.88;;;;;;;4.88;100.00;102888.09;6025637;23;20090;-70
2023/02/11 08:21:41;;;;;;;16.92;9.63;;;;;;;4.61;100.00;102844.56;6047458;23;20013;-70
2023/02/11 08:24:08;;;;;;;9.60;8.13;;;;;;;5.27;100.00;102935.19;6026834;23;20125;-71
2023/02/11 08:26:35;;;;;;;20.55;10.30;;;;;;;5.31;100.00;102934.34;6045118;23;20100;-70
2023/02/11 08:29:13;;;;;;;13.02;7.68;;;;;;;4.73;100.00;102833.34;6032089;23;20022;-70
2023/02/11 08:32:07;;;;;;;13.15;8.13;;;;;;;5.18;100.00;102910.84;6025393;23;20106;-71
2023/02/11 08:34:36;;;;;;;14.30;10.85;;;;;;;5.03;100.00;102897.72;6033164;23;20053;-71
2023/02/11 08:37:02;;;;;;;13.43;11.23;;;;;;;5.43;100.00;102942.22;6022536;23;20035;-71
2023/02/11 08:39:29;;;;;;;11.85;6.85;;;;;;;5.06;100.00;102882.16;6050185;23;20010;-70
2023/02/11 08:42:23;;;;;;;15.00;10.43;;;;;;;4.86;100.00;102847.34;6042369;23;20242;-70
2023/02/11 08:44:50;;;;;;;11.65;8.50;;;;;;;5.34;100.00;102921.34;6051362;23;20132;-70
2023/02/11 08:47:16;;;;;;;8.73;7.90;;;;;;;5.35;100.00;102923.06;6028427;23;20645;-71
2023/02/11 08:49:42;;;;;;;16.75;8.82;;;;;;;5.31;100.00;102930.03;6041318;23;20030;-71
2023/02/11 08:52:36;;;;;;;10.82;9.27;;;;;;;5.55;100.00;102952.72;6050635;23;20161;-70
2023/02/11 08:55:03;;;;;;;14.93;9.35;;;;;;;4.12;100.00;102717.69;6047992;23;20061;-71
2023/02/11 08:57:30;;;;;;;18.00;8.77;;;;;;;5.16;100.00;102890.88;6051361;23;20390;-71
2023/02/11 08:59:57;;;;;;;18.02;8.10;;;;;;;5.18;100.00;102895.22;6050074;23;20072;-71
2023/02/11 09:02:26;;;;;;;10.25;6.75;;;;;;;5.60;100.00;102965.75;6028833;23;20107;-71
2023/02/11 09:04:52;;;;;;;10.65;7.97;;;;;;;5.38;100.00;102956.97;6049147;23;20028;-71
2023/02/11 09:07:19;;;;;;;10.93;8.90;;;;;;;5.29;100.00;102921.34;6052630;23;20221;-70
2023/02/11 09:09:45;;;;;;;15.73;9.18;;;;;;;5.64;100.00;102979.69;6026329;23;20096;-72
2023/02/11 09:12:11;;;;;;;8.75;7.95;;;;;;;5.66;100.00;102983.16;6057020;23;20029;-71
2023/02/11 09:14:38;;;;;;;17.77;10.75;;;;;;;5.57;100.00;102983.97;6007291;23;20605;-72
2023/02/11 09:17:05;;;;;;;15.48;8.07;;;;;;;5.72;100.00;102989.25;6019957;23;20022;-71
2023/02/11 09:19:31;;;;;;;10.30;6.97;;;;;;;5.68;100.00;102984.03;6054856;23;20041;-72
2023/02/11 09:21:58;;;;;;;19.77;9.07;;;;;;;5.62;100.00;102957.97;6029384;23;20034;-71
2023/02/11 09:24:24;;;;;;;14.35;7.53;;;;;;;5.87;100.00;102988.44;6054786;23;20123;-71
2023/02/11 09:26:51;;;;;;;12.85;8.15;;;;;;;5.70;100.00;102957.13;6056746;23;20022;-73
2023/02/11 09:29:17;;;;;;;6.95;5.95;;;;;;;5.57;100.00;102971.84;6060132;23;20030;-72
2023/02/11 09:31:44;;;;;;;15.95;10.02;;;;;;;5.21;100.00;102912.59;6021804;23;20094;-73
2023/02/11 09:34:11;;;;;;;13.60;8.73;;;;;;;5.61;100.00;102972.69;6053671;23;20034;-71
2023/02/11 09:36:39;;;;;;;21.73;11.32;;;;;;;5.71;100.00;102994.47;6032898;23;20027;-70
2023/02/11 09:39:16;;;;;;;17.50;10.48;;;;;;;5.69;100.00;102981.44;6054670;23;20075;-72
2023/02/11 09:42:01;;;;;;;15.93;9.95;;;;;;;5.76;100.00;102995.38;6029611;23;20564;-72
2023/02/11 09:44:31;;;;;;;12.00;8.98;;;;;;;5.80;100.00;103000.59;6056552;23;20032;-71
2023/02/11 09:47:05;;;;;;;16.88;8.55;;;;;;;5.82;100.00;103002.34;6056848;23;20028;-72
2023/02/11 09:49:41;;;;;;;12.73;8.20;;;;;;;5.85;100.00;102998.00;6030742;23;20029;-72
2023/02/11 09:52:23;;;;;;;10.68;8.02;;;;;;;5.93;100.00;102998.03;6030191;23;20613;-73
2023/02/11 09:54:55;;;;;;;16.80;10.60;;;;;;;5.89;100.00;103024.94;5999772;23;20031;-72
2023/02/11 09:57:27;;;;;;;11.03;8.40;;;;;;;5.88;100.00;103010.19;6055394;23;20648;-72
2023/02/11 09:59:56;;;;;;;13.82;8.27;;;;;;;5.78;100.00;103010.13;6004351;23;20091;-72
2023/02/11 10:02:35;;;;;;;11.82;7.75;;;;;;;5.66;100.00;102988.38;6055906;23;20026;-71
2023/02/11 10:05:26;;;;;;;12.95;9.73;;;;;;;5.88;100.00;103023.22;6011760;23;20387;-71
2023/02/11 10:08:21;;;;;;;13.05;9.30;;;;;;;5.94;100.00;103026.72;6000117;23;20118;-72
2023/02/11 10:10:57;;;;;;;13.15;10.20;;;;;;;5.86;100.00;103025.81;6047018;23;20026;-72
2023/02/11 10:14:02;;;;;;;19.23;11.05;;;;;;;5.99;100.00;103032.88;6026197;23;20049;-72
2023/02/11 10:17:03;;;;;;;10.38;8.02;;;;;;;5.53;100.00;102945.75;5927977;24;20035;-71
2023/02/11 10:19:41;;;;;;;14.82;9.32;;;;;;;5.48;100.00;102937.91;6023508;23;20045;-72
2023/02/11 10:22:17;;;;;;;10.57;9.18;;;;;;;5.64;100.00;102987.50;6059273;23;20477;-72
2023/02/11 10:24:54;;;;;;;14.35;9.43;;;;;;;6.10;100.00;103047.69;6028313;23;20082;-70
2023/02/11 10:27:30;;;;;;;11.88;9.05;;;;;;;6.18;100.00;103045.97;6022464;23;20179;-71
2023/02/11 10:30:15;;;;;;;12.70;9.52;;;;;;;5.79;100.00;102993.66;6057288;23;20064;-71
2023/02/11 10:32:49;;;;;;;11.13;7.93;;;;;;;5.68;100.00;102991.84;6049020;23;20026;-71
2023/02/11 10:35:20;;;;;;;13.60;8.27;;;;;;;6.05;100.00;103031.13;6029027;23;20034;-72
2023/02/11 10:38:14;;;;;;;14.55;10.32;;;;;;;5.74;100.00;102979.72;6029338;23;20038;-72
2023/02/11 10:40:44;;;;;;;22.42;10.52;;;;;;;6.16;100.00;103050.31;6058195;23;20026;-71
2023/02/11 10:43:13;;;;;;;17.15;10.02;;;;;;;6.18;100.00;103048.59;6055345;23;20528;-70
2023/02/11 10:46:15;;;;;;;27.45;15.98;;;;;;;6.20;100.00;103052.06;6013345;23;20254;-70
2023/02/11 10:48:50;;;;;;;24.48;11.43;;;;;;;6.21;100.00;103052.94;6053311;23;20030;-70
2023/02/11 10:51:21;;;;;;;20.02;10.45;;;;;;;6.13;100.00;103048.56;6062171;23;20495;-71
2023/02/11 10:54:03;;;;;;;13.43;8.95;;;;;;;6.16;100.00;103055.53;6050611;23;20039;-72
2023/02/11 10:56:35;;;;;;;23.63;10.93;;;;;;;6.18;100.00;103059.00;6028643;23;20022;-72
2023/02/11 10:59:14;;;;;;;11.55;8.60;;;;;;;5.89;100.00;102991.94;6051328;23;20544;-70
2023/02/11 11:01:47;;;;;;;20.80;11.07;;;;;;;6.17;100.00;103041.59;6059576;23;20081;-70
2023/02/11 11:04:32;;;;;;;11.95;8.00;;;;;;;6.14;100.00;103050.28;6019776;23;20109;-71
2023/02/11 11:07:21;;;;;;;14.10;9.38;;;;;;;5.91;100.00;102994.56;6053971;23;20034;-71
2023/02/11 11:09:58;;;;;;;12.90;8.60;;;;;;;6.12;100.00;103022.50;6040133;23;20034;-72
2023/02/11 11:12:27;;;;;;;13.27;8.52;;;;;;;6.18;100.00;103048.59;6026103;23;20499;-71
2023/02/11 11:14:57;;;;;;;22.90;10.55;;;;;;;6.21;100.00;103032.94;6012659;23;20019;-71
2023/02/11 11:17:27;;;;;;;19.83;11.50;;;;;;;6.28;100.00;103052.09;6044594;23;20030;-70
2023/02/11 11:20:14;;;;;;;14.85;9.10;;;;;;;6.13;100.00;103034.63;6010081;23;20029;-71
2023/02/11 11:22:41;;;;;;;13.00;9.20;;;;;;;6.07;100.00;103035.47;6038528;23;20465;-72
2023/02/11 11:25:21;;;;;;;16.88;9.77;;;;;;;6.33;100.00;103061.66;6031729;23;20035;-71
2023/02/11 11:27:50;;;;;;;15.10;10.23;;;;;;;6.33;100.00;103053.84;6045725;23;20037;-70
2023/02/11 11:30:17;;;;;;;15.65;9.02;;;;;;;6.11;100.00;103024.19;6026464;23;20030;-70
2023/02/11 11:32:44;;;;;;;15.85;8.75;;;;;;;6.19;100.00;103024.22;6049238;23;20025;-71
2023/02/11 11:35:23;;;;;;;13.57;9.40;;;;;;;6.31;100.00;103049.47;6001770;23;20398;-71
2023/02/11 11:37:55;;;;;;;13.73;9.43;;;;;;;6.25;100.00;103023.38;6045076;23;20026;-71
2023/02/11 11:40:33;;;;;;;15.10;12.00;;;;;;;6.35;100.00;103052.13;6031760;23;20023;-71
2023/02/11 11:43:12;;;;;;;12.75;9.82;;;;;;;6.43;100.00;103046.03;6031049;23;20041;-71
2023/02/11 11:45:50;;;;;;;16.70;9.15;;;;;;;6.57;100.00;103057.38;6025789;23;20758;-71